sensor_id;sensor_type;location;lat;lon;timestamp;P1;durP1;ratioP1;P2;durP2;ratioP2
20623;SDS011;10471;42.736;23.346;2022-07-06T00:00:33;23.83;;;18.47;;
20623;SDS011;10471;42.736;23.346;2022-07-06T00:02:58;24.33;;;18.97;;
20623;SDS011;10471;42.736;23.346;2022-07-06T00:05:24;23.90;;;18.87;;
20623;SDS011;10471;42.736;23.346;2022-07-06T00:07:50;24.93;;;19.70;;
20623;SDS011;10471;42.736;23.346;2022-07-06T00:10:16;30.43;;;20.13;;
20623;SDS011;10471;42.736;23.346;2022-07-06T00:12:41;24.17;;;19.33;;
20623;SDS011;10471;42.736;23.346;2022-07-06T00:15:06;25.50;;;19.27;;
20623;SDS011;10471;42.736;23.346;2022-07-06T00:17:32;23.10;;;18.73;;
20623;SDS011;10471;42.736;23.346;2022-07-06T00:19:57;22.73;;;19.43;;
20623;SDS011;10471;42.736;23.346;2022-07-06T00:22:23;31.97;;;19.97;;
20623;SDS011;10471;42.736;23.346;2022-07-06T00:24:48;25.07;;;19.27;;
20623;SDS011;10471;42.736;23.346;2022-07-06T00:27:13;24.77;;;18.80;;
20623;SDS011;10471;42.736;23.346;2022-07-06T00:29:39;23.23;;;18.90;;
20623;SDS011;10471;42.736;23.346;2022-07-06T00:32:08;27.73;;;19.83;;
20623;SDS011;10471;42.736;23.346;2022-07-06T00:34:35;23.20;;;18.40;;
20623;SDS011;10471;42.736;23.346;2022-07-06T00:37:00;27.23;;;20.13;;
20623;SDS011;10471;42.736;23.346;2022-07-06T00:39:26;25.53;;;18.27;;
20623;SDS011;10471;42.736;23.346;2022-07-06T00:41:54;23.13;;;18.37;;
20623;SDS011;10471;42.736;23.346;2022-07-06T00:44:20;26.87;;;18.47;;
20623;SDS011;10471;42.736;23.346;2022-07-06T00:46:45;27.23;;;18.80;;
20623;SDS011;10471;42.736;23.346;2022-07-06T00:49:11;23.80;;;18.00;;
20623;SDS011;10471;42.736;23.346;2022-07-06T00:51:56;21.57;;;17.10;;
20623;SDS011;10471;42.736;23.346;2022-07-06T00:54:23;22.67;;;18.07;;
20623;SDS011;10471;42.736;23.346;2022-07-06T00:56:48;26.70;;;19.23;;
20623;SDS011;10471;42.736;23.346;2022-07-06T00:59:14;25.10;;;18.60;;
20623;SDS011;10471;42.736;23.346;2022-07-06T01:01:39;23.90;;;18.80;;
20623;SDS011;10471;42.736;23.346;2022-07-06T01:04:05;25.23;;;19.20;;
20623;SDS011;10471;42.736;23.346;2022-07-06T01:06:30;26.27;;;19.03;;
20623;SDS011;10471;42.736;23.346;2022-07-06T01:08:56;25.17;;;18.80;;
20623;SDS011;10471;42.736;23.346;2022-07-06T01:11:22;25.07;;;19.70;;
20623;SDS011;10471;42.736;23.346;2022-07-06T01:13:47;25.33;;;19.50;;
20623;SDS011;10471;42.736;23.346;2022-07-06T01:16:13;31.67;;;21.27;;
20623;SDS011;10471;42.736;23.346;2022-07-06T01:18:38;29.50;;;21.53;;
20623;SDS011;10471;42.736;23.346;2022-07-06T01:21:06;29.40;;;22.27;;
20623;SDS011;10471;42.736;23.346;2022-07-06T01:23:39;29.70;;;22.23;;
20623;SDS011;10471;42.736;23.346;2022-07-06T01:26:08;29.40;;;21.67;;
20623;SDS011;10471;42.736;23.346;2022-07-06T01:28:34;28.37;;;21.23;;
20623;SDS011;10471;42.736;23.346;2022-07-06T01:31:00;31.27;;;21.90;;
20623;SDS011;10471;42.736;23.346;2022-07-06T01:33:25;27.37;;;20.80;;
20623;SDS011;10471;42.736;23.346;2022-07-06T01:35:51;33.87;;;23.00;;
20623;SDS011;10471;42.736;23.346;2022-07-06T01:38:16;30.83;;;22.07;;
20623;SDS011;10471;42.736;23.346;2022-07-06T01:40:42;26.97;;;21.53;;
20623;SDS011;10471;42.736;23.346;2022-07-06T01:43:07;28.93;;;21.27;;
20623;SDS011;10471;42.736;23.346;2022-07-06T01:45:32;27.97;;;22.13;;
20623;SDS011;10471;42.736;23.346;2022-07-06T01:47:58;27.00;;;21.20;;
20623;SDS011;10471;42.736;23.346;2022-07-06T01:50:23;29.87;;;21.67;;
20623;SDS011;10471;42.736;23.346;2022-07-06T01:52:49;28.03;;;21.53;;
20623;SDS011;10471;42.736;23.346;2022-07-06T01:55:14;30.93;;;21.93;;
20623;SDS011;10471;42.736;23.346;2022-07-06T01:57:40;29.43;;;22.70;;
20623;SDS011;10471;42.736;23.346;2022-07-06T02:00:06;29.77;;;21.30;;
20623;SDS011;10471;42.736;23.346;2022-07-06T02:02:33;29.17;;;21.60;;
20623;SDS011;10471;42.736;23.346;2022-07-06T02:04:58;28.80;;;21.53;;
20623;SDS011;10471;42.736;23.346;2022-07-06T02:07:23;28.53;;;21.60;;
20623;SDS011;10471;42.736;23.346;2022-07-06T02:09:49;28.13;;;21.73;;
20623;SDS011;10471;42.736;23.346;2022-07-06T02:12:14;25.80;;;20.57;;
20623;SDS011;10471;42.736;23.346;2022-07-06T02:14:40;23.57;;;19.00;;
20623;SDS011;10471;42.736;23.346;2022-07-06T02:17:05;24.63;;;18.97;;
20623;SDS011;10471;42.736;23.346;2022-07-06T02:19:30;24.93;;;18.70;;
20623;SDS011;10471;42.736;23.346;2022-07-06T02:21:56;24.20;;;19.37;;
20623;SDS011;10471;42.736;23.346;2022-07-06T02:24:21;22.47;;;18.43;;
20623;SDS011;10471;42.736;23.346;2022-07-06T02:26:47;24.27;;;18.70;;
20623;SDS011;10471;42.736;23.346;2022-07-06T02:29:12;23.43;;;17.47;;
20623;SDS011;10471;42.736;23.346;2022-07-06T02:31:38;27.53;;;19.30;;
20623;SDS011;10471;42.736;23.346;2022-07-06T02:34:03;23.40;;;17.93;;
20623;SDS011;10471;42.736;23.346;2022-07-06T02:36:28;24.10;;;17.10;;
20623;SDS011;10471;42.736;23.346;2022-07-06T02:38:54;22.37;;;17.50;;
20623;SDS011;10471;42.736;23.346;2022-07-06T02:41:19;22.37;;;17.63;;
20623;SDS011;10471;42.736;23.346;2022-07-06T02:43:45;24.73;;;17.90;;
20623;SDS011;10471;42.736;23.346;2022-07-06T02:46:10;22.97;;;17.10;;
20623;SDS011;10471;42.736;23.346;2022-07-06T02:48:35;22.97;;;17.47;;
20623;SDS011;10471;42.736;23.346;2022-07-06T02:51:01;22.53;;;16.83;;
20623;SDS011;10471;42.736;23.346;2022-07-06T02:53:26;20.27;;;16.93;;
20623;SDS011;10471;42.736;23.346;2022-07-06T02:55:52;24.93;;;17.57;;
20623;SDS011;10471;42.736;23.346;2022-07-06T02:58:17;19.83;;;16.97;;
20623;SDS011;10471;42.736;23.346;2022-07-06T03:00:42;22.77;;;17.73;;
20623;SDS011;10471;42.736;23.346;2022-07-06T03:03:08;22.70;;;16.87;;
20623;SDS011;10471;42.736;23.346;2022-07-06T03:05:35;21.00;;;16.93;;
20623;SDS011;10471;42.736;23.346;2022-07-06T03:08:00;19.50;;;16.87;;
20623;SDS011;10471;42.736;23.346;2022-07-06T03:10:26;28.17;;;17.13;;
20623;SDS011;10471;42.736;23.346;2022-07-06T03:12:52;23.40;;;16.20;;
20623;SDS011;10471;42.736;23.346;2022-07-06T03:15:18;22.50;;;16.87;;
20623;SDS011;10471;42.736;23.346;2022-07-06T03:17:43;20.13;;;16.13;;
20623;SDS011;10471;42.736;23.346;2022-07-06T03:20:09;20.23;;;16.20;;
20623;SDS011;10471;42.736;23.346;2022-07-06T03:22:34;21.33;;;16.33;;
20623;SDS011;10471;42.736;23.346;2022-07-06T03:25:00;21.47;;;15.87;;
20623;SDS011;10471;42.736;23.346;2022-07-06T03:27:25;24.70;;;16.73;;
20623;SDS011;10471;42.736;23.346;2022-07-06T03:29:50;25.90;;;16.40;;
20623;SDS011;10471;42.736;23.346;2022-07-06T03:32:16;23.60;;;16.57;;
20623;SDS011;10471;42.736;23.346;2022-07-06T03:34:41;22.20;;;17.53;;
20623;SDS011;10471;42.736;23.346;2022-07-06T03:37:07;23.10;;;16.60;;
20623;SDS011;10471;42.736;23.346;2022-07-06T03:39:33;24.83;;;17.67;;
20623;SDS011;10471;42.736;23.346;2022-07-06T03:41:58;23.73;;;17.50;;
20623;SDS011;10471;42.736;23.346;2022-07-06T03:44:24;23.63;;;17.10;;
20623;SDS011;10471;42.736;23.346;2022-07-06T03:46:49;19.87;;;16.30;;
20623;SDS011;10471;42.736;23.346;2022-07-06T03:49:16;22.60;;;17.10;;
20623;SDS011;10471;42.736;23.346;2022-07-06T03:51:41;25.67;;;17.47;;
20623;SDS011;10471;42.736;23.346;2022-07-06T03:54:06;20.97;;;16.23;;
20623;SDS011;10471;42.736;23.346;2022-07-06T03:56:32;24.17;;;17.27;;
20623;SDS011;10471;42.736;23.346;2022-07-06T03:59:01;19.93;;;15.93;;
20623;SDS011;10471;42.736;23.346;2022-07-06T04:01:27;24.53;;;16.50;;
20623;SDS011;10471;42.736;23.346;2022-07-06T04:03:54;20.87;;;17.37;;
20623;SDS011;10471;42.736;23.346;2022-07-06T04:06:20;20.07;;;16.43;;
20623;SDS011;10471;42.736;23.346;2022-07-06T04:08:46;19.93;;;16.90;;
20623;SDS011;10471;42.736;23.346;2022-07-06T04:11:11;22.47;;;15.73;;
20623;SDS011;10471;42.736;23.346;2022-07-06T04:13:37;22.67;;;15.50;;
20623;SDS011;10471;42.736;23.346;2022-07-06T04:16:04;19.83;;;15.40;;
20623;SDS011;10471;42.736;23.346;2022-07-06T04:18:30;21.20;;;14.13;;
20623;SDS011;10471;42.736;23.346;2022-07-06T04:20:56;19.37;;;14.37;;
20623;SDS011;10471;42.736;23.346;2022-07-06T04:23:24;21.53;;;14.03;;
20623;SDS011;10471;42.736;23.346;2022-07-06T04:25:49;20.40;;;13.93;;
20623;SDS011;10471;42.736;23.346;2022-07-06T04:28:15;20.50;;;13.53;;
20623;SDS011;10471;42.736;23.346;2022-07-06T04:30:41;19.47;;;12.70;;
20623;SDS011;10471;42.736;23.346;2022-07-06T04:33:06;16.53;;;13.63;;
20623;SDS011;10471;42.736;23.346;2022-07-06T04:35:31;19.97;;;13.73;;
20623;SDS011;10471;42.736;23.346;2022-07-06T04:37:57;17.30;;;14.00;;
20623;SDS011;10471;42.736;23.346;2022-07-06T04:40:22;19.70;;;14.33;;
20623;SDS011;10471;42.736;23.346;2022-07-06T04:42:48;19.73;;;14.70;;
20623;SDS011;10471;42.736;23.346;2022-07-06T04:45:13;18.37;;;14.17;;
20623;SDS011;10471;42.736;23.346;2022-07-06T04:47:38;19.20;;;14.37;;
20623;SDS011;10471;42.736;23.346;2022-07-06T04:50:04;21.73;;;15.47;;
20623;SDS011;10471;42.736;23.346;2022-07-06T04:52:30;21.13;;;15.83;;
20623;SDS011;10471;42.736;23.346;2022-07-06T04:54:55;24.53;;;15.77;;
20623;SDS011;10471;42.736;23.346;2022-07-06T04:57:21;20.83;;;15.40;;
20623;SDS011;10471;42.736;23.346;2022-07-06T04:59:46;23.53;;;16.50;;
20623;SDS011;10471;42.736;23.346;2022-07-06T05:02:12;29.10;;;17.70;;
20623;SDS011;10471;42.736;23.346;2022-07-06T05:04:37;25.67;;;17.90;;
20623;SDS011;10471;42.736;23.346;2022-07-06T05:07:03;26.93;;;17.80;;
20623;SDS011;10471;42.736;23.346;2022-07-06T05:09:28;24.13;;;18.03;;
20623;SDS011;10471;42.736;23.346;2022-07-06T05:11:54;27.23;;;19.07;;
20623;SDS011;10471;42.736;23.346;2022-07-06T05:14:19;27.17;;;17.23;;
20623;SDS011;10471;42.736;23.346;2022-07-06T05:16:45;29.80;;;18.03;;
20623;SDS011;10471;42.736;23.346;2022-07-06T05:19:10;24.60;;;18.67;;
20623;SDS011;10471;42.736;23.346;2022-07-06T05:21:35;27.20;;;18.83;;
20623;SDS011;10471;42.736;23.346;2022-07-06T05:24:01;27.20;;;18.47;;
20623;SDS011;10471;42.736;23.346;2022-07-06T05:26:26;31.17;;;18.70;;
20623;SDS011;10471;42.736;23.346;2022-07-06T05:28:52;26.00;;;18.20;;
20623;SDS011;10471;42.736;23.346;2022-07-06T05:31:17;24.50;;;18.23;;
20623;SDS011;10471;42.736;23.346;2022-07-06T05:33:42;22.00;;;17.97;;
20623;SDS011;10471;42.736;23.346;2022-07-06T05:36:08;23.80;;;18.33;;
20623;SDS011;10471;42.736;23.346;2022-07-06T05:38:33;22.00;;;18.03;;
20623;SDS011;10471;42.736;23.346;2022-07-06T05:40:59;20.90;;;18.10;;
20623;SDS011;10471;42.736;23.346;2022-07-06T05:43:24;22.13;;;17.93;;
20623;SDS011;10471;42.736;23.346;2022-07-06T05:45:50;23.03;;;17.83;;
20623;SDS011;10471;42.736;23.346;2022-07-06T05:48:15;23.80;;;17.87;;
20623;SDS011;10471;42.736;23.346;2022-07-06T05:50:59;24.90;;;17.90;;
20623;SDS011;10471;42.736;23.346;2022-07-06T05:53:25;21.13;;;16.57;;
20623;SDS011;10471;42.736;23.346;2022-07-06T05:55:50;21.77;;;16.33;;
20623;SDS011;10471;42.736;23.346;2022-07-06T05:58:16;19.67;;;16.17;;
20623;SDS011;10471;42.736;23.346;2022-07-06T06:00:41;19.57;;;15.73;;
20623;SDS011;10471;42.736;23.346;2022-07-06T06:03:07;19.20;;;14.93;;
20623;SDS011;10471;42.736;23.346;2022-07-06T06:05:32;22.90;;;16.00;;
20623;SDS011;10471;42.736;23.346;2022-07-06T06:07:58;21.57;;;15.80;;
20623;SDS011;10471;42.736;23.346;2022-07-06T06:10:23;23.10;;;15.37;;
20623;SDS011;10471;42.736;23.346;2022-07-06T06:12:49;17.63;;;15.17;;
20623;SDS011;10471;42.736;23.346;2022-07-06T06:15:15;17.67;;;14.47;;
20623;SDS011;10471;42.736;23.346;2022-07-06T06:17:41;16.97;;;14.40;;
20623;SDS011;10471;42.736;23.346;2022-07-06T06:20:07;21.00;;;15.03;;
20623;SDS011;10471;42.736;23.346;2022-07-06T06:22:50;18.17;;;14.27;;
20623;SDS011;10471;42.736;23.346;2022-07-06T06:25:18;18.80;;;14.00;;
20623;SDS011;10471;42.736;23.346;2022-07-06T06:27:45;19.87;;;15.23;;
20623;SDS011;10471;42.736;23.346;2022-07-06T06:30:11;18.60;;;14.27;;
20623;SDS011;10471;42.736;23.346;2022-07-06T06:32:37;18.77;;;14.97;;
20623;SDS011;10471;42.736;23.346;2022-07-06T06:35:03;17.17;;;13.73;;
20623;SDS011;10471;42.736;23.346;2022-07-06T06:37:29;16.90;;;14.27;;
20623;SDS011;10471;42.736;23.346;2022-07-06T06:39:55;17.40;;;13.37;;
20623;SDS011;10471;42.736;23.346;2022-07-06T06:42:20;18.27;;;14.13;;
20623;SDS011;10471;42.736;23.346;2022-07-06T06:44:47;19.67;;;13.67;;
20623;SDS011;10471;42.736;23.346;2022-07-06T06:47:12;17.50;;;13.83;;
20623;SDS011;10471;42.736;23.346;2022-07-06T06:49:37;18.13;;;13.63;;
20623;SDS011;10471;42.736;23.346;2022-07-06T06:52:03;17.00;;;13.37;;
20623;SDS011;10471;42.736;23.346;2022-07-06T06:54:28;22.63;;;13.60;;
20623;SDS011;10471;42.736;23.346;2022-07-06T06:56:54;18.20;;;12.80;;
20623;SDS011;10471;42.736;23.346;2022-07-06T06:59:19;14.70;;;12.53;;
20623;SDS011;10471;42.736;23.346;2022-07-06T07:01:44;17.67;;;13.17;;
20623;SDS011;10471;42.736;23.346;2022-07-06T07:04:10;18.83;;;13.50;;
20623;SDS011;10471;42.736;23.346;2022-07-06T07:06:36;15.33;;;13.17;;
20623;SDS011;10471;42.736;23.346;2022-07-06T07:09:02;16.20;;;14.03;;
20623;SDS011;10471;42.736;23.346;2022-07-06T07:11:27;17.33;;;13.37;;
20623;SDS011;10471;42.736;23.346;2022-07-06T07:13:53;17.93;;;13.37;;
20623;SDS011;10471;42.736;23.346;2022-07-06T07:16:18;16.73;;;13.53;;
20623;SDS011;10471;42.736;23.346;2022-07-06T07:18:44;16.47;;;13.97;;
20623;SDS011;10471;42.736;23.346;2022-07-06T07:21:09;18.67;;;14.53;;
20623;SDS011;10471;42.736;23.346;2022-07-06T07:23:35;14.00;;;12.60;;
20623;SDS011;10471;42.736;23.346;2022-07-06T07:26:00;15.80;;;12.63;;
20623;SDS011;10471;42.736;23.346;2022-07-06T07:28:25;16.00;;;14.17;;
20623;SDS011;10471;42.736;23.346;2022-07-06T07:30:51;15.73;;;14.10;;
20623;SDS011;10471;42.736;23.346;2022-07-06T07:33:16;18.57;;;15.00;;
20623;SDS011;10471;42.736;23.346;2022-07-06T07:35:42;19.07;;;14.77;;
20623;SDS011;10471;42.736;23.346;2022-07-06T07:38:07;16.80;;;14.00;;
20623;SDS011;10471;42.736;23.346;2022-07-06T07:40:33;18.77;;;14.43;;
20623;SDS011;10471;42.736;23.346;2022-07-06T07:43:00;19.20;;;14.83;;
20623;SDS011;10471;42.736;23.346;2022-07-06T07:45:25;19.20;;;14.47;;
20623;SDS011;10471;42.736;23.346;2022-07-06T07:47:50;21.57;;;14.93;;
20623;SDS011;10471;42.736;23.346;2022-07-06T07:50:16;16.63;;;14.37;;
20623;SDS011;10471;42.736;23.346;2022-07-06T07:52:41;17.07;;;13.47;;
20623;SDS011;10471;42.736;23.346;2022-07-06T07:55:07;21.70;;;15.60;;
20623;SDS011;10471;42.736;23.346;2022-07-06T07:57:33;17.30;;;14.10;;
20623;SDS011;10471;42.736;23.346;2022-07-06T07:59:58;19.23;;;15.37;;
20623;SDS011;10471;42.736;23.346;2022-07-06T08:02:23;15.27;;;13.20;;
20623;SDS011;10471;42.736;23.346;2022-07-06T08:04:49;25.97;;;16.60;;
20623;SDS011;10471;42.736;23.346;2022-07-06T08:07:14;19.77;;;15.50;;
20623;SDS011;10471;42.736;23.346;2022-07-06T08:09:40;20.63;;;15.40;;
20623;SDS011;10471;42.736;23.346;2022-07-06T08:12:05;17.50;;;13.93;;
20623;SDS011;10471;42.736;23.346;2022-07-06T08:14:31;15.30;;;13.70;;
20623;SDS011;10471;42.736;23.346;2022-07-06T08:16:56;18.00;;;14.70;;
20623;SDS011;10471;42.736;23.346;2022-07-06T08:19:22;16.30;;;14.60;;
20623;SDS011;10471;42.736;23.346;2022-07-06T08:21:48;15.13;;;13.60;;
20623;SDS011;10471;42.736;23.346;2022-07-06T08:24:13;16.00;;;14.40;;
20623;SDS011;10471;42.736;23.346;2022-07-06T08:26:39;15.97;;;13.27;;
20623;SDS011;10471;42.736;23.346;2022-07-06T08:29:05;15.37;;;13.03;;
20623;SDS011;10471;42.736;23.346;2022-07-06T08:31:30;14.70;;;12.40;;
20623;SDS011;10471;42.736;23.346;2022-07-06T08:33:56;13.40;;;12.00;;
20623;SDS011;10471;42.736;23.346;2022-07-06T08:36:22;13.03;;;11.40;;
20623;SDS011;10471;42.736;23.346;2022-07-06T08:38:47;14.77;;;12.27;;
20623;SDS011;10471;42.736;23.346;2022-07-06T08:41:16;13.77;;;12.03;;
20623;SDS011;10471;42.736;23.346;2022-07-06T08:43:43;17.07;;;12.67;;
20623;SDS011;10471;42.736;23.346;2022-07-06T08:46:09;14.27;;;12.77;;
20623;SDS011;10471;42.736;23.346;2022-07-06T08:48:36;16.10;;;12.70;;
20623;SDS011;10471;42.736;23.346;2022-07-06T08:51:03;14.27;;;12.43;;
20623;SDS011;10471;42.736;23.346;2022-07-06T08:53:30;13.03;;;11.67;;
20623;SDS011;10471;42.736;23.346;2022-07-06T08:55:55;21.93;;;12.60;;
20623;SDS011;10471;42.736;23.346;2022-07-06T08:58:23;14.60;;;13.10;;
20623;SDS011;10471;42.736;23.346;2022-07-06T09:00:51;14.97;;;12.77;;
20623;SDS011;10471;42.736;23.346;2022-07-06T09:03:16;17.53;;;14.03;;
20623;SDS011;10471;42.736;23.346;2022-07-06T09:05:43;17.00;;;13.63;;
20623;SDS011;10471;42.736;23.346;2022-07-06T09:08:11;16.40;;;14.03;;
20623;SDS011;10471;42.736;23.346;2022-07-06T09:10:36;17.37;;;14.60;;
20623;SDS011;10471;42.736;23.346;2022-07-06T09:13:05;16.07;;;13.43;;
20623;SDS011;10471;42.736;23.346;2022-07-06T09:15:33;17.77;;;13.50;;
20623;SDS011;10471;42.736;23.346;2022-07-06T09:17:59;17.40;;;15.40;;
20623;SDS011;10471;42.736;23.346;2022-07-06T09:20:26;17.63;;;15.17;;
20623;SDS011;10471;42.736;23.346;2022-07-06T09:22:56;19.97;;;15.07;;
20623;SDS011;10471;42.736;23.346;2022-07-06T09:25:23;16.73;;;14.23;;
20623;SDS011;10471;42.736;23.346;2022-07-06T09:27:49;15.30;;;13.70;;
20623;SDS011;10471;42.736;23.346;2022-07-06T09:30:15;15.30;;;13.60;;
20623;SDS011;10471;42.736;23.346;2022-07-06T09:32:42;19.27;;;13.77;;
20623;SDS011;10471;42.736;23.346;2022-07-06T09:40:42;14.33;;;12.27;;
20623;SDS011;10471;42.736;23.346;2022-07-06T09:45:37;23.13;;;17.70;;
20623;SDS011;10471;42.736;23.346;2022-07-06T09:48:10;20.77;;;17.20;;
20623;SDS011;10471;42.736;23.346;2022-07-06T09:50:50;19.43;;;17.33;;
20623;SDS011;10471;42.736;23.346;2022-07-06T09:53:21;24.30;;;18.43;;
20623;SDS011;10471;42.736;23.346;2022-07-06T09:55:50;20.93;;;17.63;;
20623;SDS011;10471;42.736;23.346;2022-07-06T09:58:17;23.20;;;19.43;;
20623;SDS011;10471;42.736;23.346;2022-07-06T10:00:44;20.27;;;18.17;;
20623;SDS011;10471;42.736;23.346;2022-07-06T10:03:10;21.40;;;18.57;;
20623;SDS011;10471;42.736;23.346;2022-07-06T10:05:37;21.63;;;18.00;;
20623;SDS011;10471;42.736;23.346;2022-07-06T10:08:04;19.87;;;16.37;;
20623;SDS011;10471;42.736;23.346;2022-07-06T10:10:31;19.97;;;17.97;;
20623;SDS011;10471;42.736;23.346;2022-07-06T10:12:58;19.20;;;17.20;;
20623;SDS011;10471;42.736;23.346;2022-07-06T10:15:25;19.13;;;16.83;;
20623;SDS011;10471;42.736;23.346;2022-07-06T10:17:51;19.40;;;17.40;;
20623;SDS011;10471;42.736;23.346;2022-07-06T10:20:18;19.00;;;17.10;;
20623;SDS011;10471;42.736;23.346;2022-07-06T10:22:45;21.20;;;17.73;;
20623;SDS011;10471;42.736;23.346;2022-07-06T10:25:12;21.87;;;16.37;;
20623;SDS011;10471;42.736;23.346;2022-07-06T10:27:40;20.03;;;17.83;;
20623;SDS011;10471;42.736;23.346;2022-07-06T10:30:07;19.80;;;17.67;;
20623;SDS011;10471;42.736;23.346;2022-07-06T10:32:33;17.50;;;15.70;;
20623;SDS011;10471;42.736;23.346;2022-07-06T10:35:00;20.33;;;16.37;;
20623;SDS011;10471;42.736;23.346;2022-07-06T10:37:26;19.93;;;16.03;;
20623;SDS011;10471;42.736;23.346;2022-07-06T10:39:52;19.53;;;16.73;;
20623;SDS011;10471;42.736;23.346;2022-07-06T10:45:06;19.77;;;17.67;;
20623;SDS011;10471;42.736;23.346;2022-07-06T10:47:32;18.83;;;16.90;;
20623;SDS011;10471;42.736;23.346;2022-07-06T10:50:00;18.50;;;15.53;;
20623;SDS011;10471;42.736;23.346;2022-07-06T10:58:12;17.97;;;15.87;;
20623;SDS011;10471;42.736;23.346;2022-07-06T11:00:51;19.50;;;17.40;;
20623;SDS011;10471;42.736;23.346;2022-07-06T11:06:00;19.13;;;16.80;;
20623;SDS011;10471;42.736;23.346;2022-07-06T11:11:20;18.37;;;16.27;;
20623;SDS011;10471;42.736;23.346;2022-07-06T11:16:29;19.07;;;17.10;;
20623;SDS011;10471;42.736;23.346;2022-07-06T11:19:02;17.67;;;15.83;;
20623;SDS011;10471;42.736;23.346;2022-07-06T11:22:17;20.03;;;18.03;;
20623;SDS011;10471;42.736;23.346;2022-07-06T11:24:31;19.80;;;17.90;;
20623;SDS011;10471;42.736;23.346;2022-07-06T11:26:58;22.43;;;19.57;;
20623;SDS011;10471;42.736;23.346;2022-07-06T11:29:25;20.30;;;18.20;;
20623;SDS011;10471;42.736;23.346;2022-07-06T11:31:53;20.43;;;18.17;;
20623;SDS011;10471;42.736;23.346;2022-07-06T11:34:24;19.03;;;17.23;;
20623;SDS011;10471;42.736;23.346;2022-07-06T11:36:59;20.50;;;18.37;;
20623;SDS011;10471;42.736;23.346;2022-07-06T11:39:46;19.20;;;17.30;;
20623;SDS011;10471;42.736;23.346;2022-07-06T11:42:15;19.77;;;17.77;;
20623;SDS011;10471;42.736;23.346;2022-07-06T11:44:43;19.97;;;18.00;;
20623;SDS011;10471;42.736;23.346;2022-07-06T11:47:09;18.37;;;16.57;;
20623;SDS011;10471;42.736;23.346;2022-07-06T11:49:37;18.03;;;16.23;;
20623;SDS011;10471;42.736;23.346;2022-07-06T11:52:07;18.30;;;16.17;;
20623;SDS011;10471;42.736;23.346;2022-07-06T11:54:36;17.30;;;15.40;;
20623;SDS011;10471;42.736;23.346;2022-07-06T11:57:02;15.13;;;13.67;;
20623;SDS011;10471;42.736;23.346;2022-07-06T11:59:32;16.27;;;14.83;;
20623;SDS011;10471;42.736;23.346;2022-07-06T12:02:02;16.77;;;15.17;;
20623;SDS011;10471;42.736;23.346;2022-07-06T12:04:30;16.37;;;14.67;;
20623;SDS011;10471;42.736;23.346;2022-07-06T12:07:04;16.73;;;15.13;;
20623;SDS011;10471;42.736;23.346;2022-07-06T12:09:33;17.77;;;16.07;;
20623;SDS011;10471;42.736;23.346;2022-07-06T12:12:00;15.67;;;14.17;;
20623;SDS011;10471;42.736;23.346;2022-07-06T12:14:32;16.90;;;15.20;;
20623;SDS011;10471;42.736;23.346;2022-07-06T12:17:03;17.47;;;15.67;;
20623;SDS011;10471;42.736;23.346;2022-07-06T12:19:33;16.47;;;14.77;;
20623;SDS011;10471;42.736;23.346;2022-07-06T12:21:59;16.20;;;14.43;;
20623;SDS011;10471;42.736;23.346;2022-07-06T12:24:27;18.17;;;16.27;;
20623;SDS011;10471;42.736;23.346;2022-07-06T12:26:56;15.77;;;14.27;;
20623;SDS011;10471;42.736;23.346;2022-07-06T12:29:22;16.17;;;14.50;;
20623;SDS011;10471;42.736;23.346;2022-07-06T12:34:21;16.13;;;14.57;;
20623;SDS011;10471;42.736;23.346;2022-07-06T12:39:22;15.73;;;14.00;;
20623;SDS011;10471;42.736;23.346;2022-07-06T12:41:56;13.90;;;12.63;;
20623;SDS011;10471;42.736;23.346;2022-07-06T12:44:31;14.50;;;13.10;;
20623;SDS011;10471;42.736;23.346;2022-07-06T12:47:04;14.03;;;12.63;;
20623;SDS011;10471;42.736;23.346;2022-07-06T12:49:31;12.77;;;11.47;;
20623;SDS011;10471;42.736;23.346;2022-07-06T12:52:01;12.30;;;11.20;;
20623;SDS011;10471;42.736;23.346;2022-07-06T12:54:33;15.83;;;11.53;;
20623;SDS011;10471;42.736;23.346;2022-07-06T12:57:15;11.30;;;10.23;;
20623;SDS011;10471;42.736;23.346;2022-07-06T12:59:46;11.17;;;10.17;;
20623;SDS011;10471;42.736;23.346;2022-07-06T13:02:23;11.67;;;10.57;;
20623;SDS011;10471;42.736;23.346;2022-07-06T13:07:21;13.50;;;10.60;;
20623;SDS011;10471;42.736;23.346;2022-07-06T13:09:47;10.77;;;9.53;;
20623;SDS011;10471;42.736;23.346;2022-07-06T13:12:12;11.43;;;8.93;;
20623;SDS011;10471;42.736;23.346;2022-07-06T13:14:38;8.93;;;7.97;;
20623;SDS011;10471;42.736;23.346;2022-07-06T13:17:03;8.67;;;7.87;;
20623;SDS011;10471;42.736;23.346;2022-07-06T13:19:29;10.53;;;8.13;;
20623;SDS011;10471;42.736;23.346;2022-07-06T13:21:54;8.23;;;7.43;;
20623;SDS011;10471;42.736;23.346;2022-07-06T13:24:20;8.60;;;7.80;;
20623;SDS011;10471;42.736;23.346;2022-07-06T13:26:45;7.90;;;7.07;;
20623;SDS011;10471;42.736;23.346;2022-07-06T13:29:11;8.03;;;7.20;;
20623;SDS011;10471;42.736;23.346;2022-07-06T13:31:38;7.30;;;6.70;;
20623;SDS011;10471;42.736;23.346;2022-07-06T13:34:04;6.20;;;5.50;;
20623;SDS011;10471;42.736;23.346;2022-07-06T13:36:31;5.63;;;4.77;;
20623;SDS011;10471;42.736;23.346;2022-07-06T13:38:56;5.53;;;4.70;;
20623;SDS011;10471;42.736;23.346;2022-07-06T13:41:22;4.57;;;4.17;;
20623;SDS011;10471;42.736;23.346;2022-07-06T13:43:47;4.43;;;4.03;;
20623;SDS011;10471;42.736;23.346;2022-07-06T13:46:13;5.30;;;4.20;;
20623;SDS011;10471;42.736;23.346;2022-07-06T13:48:38;5.23;;;4.03;;
20623;SDS011;10471;42.736;23.346;2022-07-06T13:51:04;5.53;;;4.50;;
20623;SDS011;10471;42.736;23.346;2022-07-06T13:53:29;4.77;;;4.33;;
20623;SDS011;10471;42.736;23.346;2022-07-06T13:55:56;6.13;;;4.40;;
20623;SDS011;10471;42.736;23.346;2022-07-06T13:58:22;4.20;;;3.80;;
20623;SDS011;10471;42.736;23.346;2022-07-06T14:00:47;6.20;;;4.13;;
20623;SDS011;10471;42.736;23.346;2022-07-06T14:03:12;7.93;;;4.17;;
20623;SDS011;10471;42.736;23.346;2022-07-06T14:05:38;5.03;;;3.90;;
20623;SDS011;10471;42.736;23.346;2022-07-06T14:08:03;7.80;;;3.97;;
20623;SDS011;10471;42.736;23.346;2022-07-06T14:10:29;5.23;;;3.30;;
20623;SDS011;10471;42.736;23.346;2022-07-06T14:12:54;5.50;;;3.87;;
20623;SDS011;10471;42.736;23.346;2022-07-06T14:15:20;4.27;;;3.37;;
20623;SDS011;10471;42.736;23.346;2022-07-06T14:17:45;3.40;;;3.10;;
20623;SDS011;10471;42.736;23.346;2022-07-06T14:20:14;3.90;;;3.23;;
20623;SDS011;10471;42.736;23.346;2022-07-06T14:22:41;4.57;;;2.97;;
20623;SDS011;10471;42.736;23.346;2022-07-06T14:25:06;4.40;;;3.13;;
20623;SDS011;10471;42.736;23.346;2022-07-06T14:27:33;3.30;;;3.00;;
20623;SDS011;10471;42.736;23.346;2022-07-06T14:29:59;5.40;;;3.20;;
20623;SDS011;10471;42.736;23.346;2022-07-06T14:32:24;4.83;;;2.83;;
20623;SDS011;10471;42.736;23.346;2022-07-06T14:34:50;3.67;;;3.30;;
20623;SDS011;10471;42.736;23.346;2022-07-06T14:37:16;5.67;;;3.27;;
20623;SDS011;10471;42.736;23.346;2022-07-06T14:39:41;3.30;;;3.00;;